createdAt,value
2018-03-25T00:02:38.304Z,27.23
2018-03-25T00:07:40.974Z,28.77
2018-03-25T00:12:43.511Z,34.07
2018-03-25T00:17:46.132Z,39.33
2018-03-25T00:22:48.685Z,35.60
2018-03-25T00:27:51.228Z,31.20
2018-03-25T00:32:53.713Z,30.83
2018-03-25T00:37:56.182Z,29.57
2018-03-25T00:42:58.704Z,36.40
2018-03-25T00:48:01.569Z,30.67
2018-03-25T00:53:04.081Z,32.63
2018-03-25T00:58:06.543Z,26.33
2018-03-25T01:03:09.103Z,36.13
2018-03-25T01:08:11.608Z,28.83
2018-03-25T01:13:14.160Z,30.27
2018-03-25T01:18:16.725Z,34.17
2018-03-25T01:23:19.402Z,26.97
2018-03-25T01:28:21.886Z,35.57
2018-03-25T01:33:24.354Z,29.27
2018-03-25T01:38:26.856Z,34.60
2018-03-25T01:43:29.371Z,25.87
2018-03-25T01:48:31.868Z,25.87
2018-03-25T01:53:34.318Z,35.10
2018-03-25T01:58:36.777Z,26.73
2018-03-25T02:03:39.452Z,24.60
2018-03-25T02:08:42.166Z,33.43
2018-03-25T02:13:44.683Z,26.17
2018-03-25T02:18:47.184Z,33.73
2018-03-25T02:23:49.668Z,31.90
2018-03-25T02:28:52.240Z,33.40
2018-03-25T02:33:54.702Z,27.37
2018-03-25T02:38:57.177Z,29.97
2018-03-25T02:43:59.642Z,34.40
2018-03-25T02:49:02.110Z,25.73
2018-03-25T02:54:04.603Z,28.13
2018-03-25T02:59:07.128Z,36.07
2018-03-25T03:04:09.682Z,35.30
2018-03-25T03:09:12.222Z,35.50
2018-03-25T03:14:14.766Z,34.03
2018-03-25T03:19:17.284Z,32.30
2018-03-25T03:24:19.761Z,35.63
2018-03-25T03:29:22.221Z,35.03
2018-03-25T03:34:24.703Z,33.20
2018-03-25T03:39:27.210Z,31.30
2018-03-25T03:44:29.692Z,29.50
2018-03-25T03:49:32.704Z,34.90
2018-03-25T03:54:35.200Z,30.43
2018-03-25T03:59:37.780Z,35.10
2018-03-25T04:04:40.394Z,30.97
2018-03-25T04:09:42.918Z,36.47
2018-03-25T04:14:45.433Z,25.13
2018-03-25T04:19:48.151Z,26.90
2018-03-25T04:24:50.626Z,30.03
2018-03-25T04:29:53.147Z,33.63
2018-03-25T04:34:55.965Z,28.07
2018-03-25T04:39:58.461Z,32.37
2018-03-25T04:45:00.920Z,26.13
2018-03-25T04:50:03.377Z,28.87
2018-03-25T04:55:05.838Z,26.23
2018-03-25T05:00:08.362Z,25.50
2018-03-25T05:05:10.885Z,22.80
2018-03-25T05:10:13.548Z,28.07
2018-03-25T05:15:16.034Z,30.63
2018-03-25T05:20:18.545Z,31.87
2018-03-25T05:25:21.065Z,28.87
2018-03-25T05:30:23.655Z,27.07
2018-03-25T05:35:26.111Z,30.97
2018-03-25T05:40:28.590Z,29.73
2018-03-25T05:45:31.084Z,31.47
2018-03-25T05:50:33.565Z,27.23
2018-03-25T05:55:36.766Z,22.87
2018-03-25T06:00:39.282Z,29.20
2018-03-25T06:05:41.803Z,27.40
2018-03-25T06:10:44.316Z,28.90
2018-03-25T06:15:46.901Z,25.90
2018-03-25T06:20:49.382Z,21.07
2018-03-25T06:25:51.847Z,27.47
2018-03-25T06:30:54.346Z,24.47
2018-03-25T06:35:56.816Z,26.63
2018-03-25T06:40:59.309Z,24.83
2018-03-25T06:46:01.784Z,28.10
2018-03-25T06:51:04.278Z,28.47
2018-03-25T06:56:06.798Z,28.37
2018-03-25T07:01:09.343Z,28.23
2018-03-25T07:06:11.966Z,29.13
2018-03-25T07:11:15.577Z,26.20
2018-03-25T07:16:18.056Z,26.07
2018-03-25T07:21:20.532Z,27.73
2018-03-25T07:26:23.024Z,25.27
2018-03-25T07:31:25.517Z,25.87
2018-03-25T07:36:28.029Z,24.67
2018-03-25T07:41:30.535Z,22.77
2018-03-25T07:46:33.043Z,23.57
2018-03-25T07:51:35.517Z,21.30
2018-03-25T07:56:38.161Z,22.60
2018-03-25T08:01:40.794Z,22.23
2018-03-25T08:06:43.321Z,23.97
2018-03-25T08:11:48.010Z,24.13
2018-03-25T08:16:50.525Z,23.63
2018-03-25T08:21:53.131Z,23.57
2018-03-25T08:26:55.618Z,23.63
2018-03-25T08:31:58.110Z,21.87
2018-03-25T08:37:00.561Z,23.43
2018-03-25T08:42:03.075Z,23.17
2018-03-25T08:47:05.600Z,24.07
2018-03-25T08:52:08.084Z,22.97
2018-03-25T08:57:10.613Z,24.03
2018-03-25T09:02:13.150Z,24.63
2018-03-25T09:07:15.869Z,24.33
2018-03-25T09:12:18.435Z,23.53
2018-03-25T09:17:20.914Z,23.10
2018-03-25T09:22:23.423Z,23.90
2018-03-25T09:27:26.854Z,21.97
2018-03-25T09:32:29.341Z,22.97
2018-03-25T09:37:31.873Z,22.53
2018-03-25T09:42:34.367Z,21.67
2018-03-25T09:47:36.889Z,21.57
2018-03-25T09:52:39.516Z,21.07
2018-03-25T09:57:42.030Z,20.97
2018-03-25T10:02:50.558Z,21.17
2018-03-25T10:07:53.168Z,21.67
2018-03-25T10:12:56.844Z,22.47
2018-03-25T10:17:59.365Z,21.90
2018-03-25T10:23:01.840Z,21.47
2018-03-25T10:28:04.327Z,22.63
2018-03-25T10:33:07.133Z,23.30
2018-03-25T10:38:09.771Z,24.07
2018-03-25T10:43:12.323Z,22.27
2018-03-25T10:48:14.984Z,22.87
2018-03-25T10:53:17.576Z,23.67
2018-03-25T10:58:20.105Z,21.80
2018-03-25T11:03:22.598Z,24.03
2018-03-25T11:08:25.088Z,23.83
2018-03-25T11:13:27.565Z,22.67
2018-03-25T11:18:30.059Z,23.13
2018-03-25T11:23:32.569Z,23.30
2018-03-25T11:28:35.047Z,24.37
2018-03-25T11:33:37.660Z,23.87
2018-03-25T11:38:40.237Z,25.20
2018-03-25T11:43:42.843Z,23.30
2018-03-25T11:48:45.466Z,23.67
2018-03-25T11:53:47.950Z,25.40
2018-03-25T11:58:50.466Z,23.97
2018-03-25T12:03:53.023Z,24.97
2018-03-25T12:08:55.498Z,24.43
2018-03-25T12:13:58.163Z,23.53
2018-03-25T12:19:01.592Z,24.13
2018-03-25T12:24:04.068Z,23.77
2018-03-25T12:29:06.596Z,25.93
2018-03-25T12:34:09.117Z,24.60
2018-03-25T12:39:11.692Z,25.90
2018-03-25T12:44:14.190Z,25.43
2018-03-25T12:49:16.688Z,26.13
2018-03-25T12:54:19.200Z,26.37
2018-03-25T12:59:22.110Z,24.63
2018-03-25T13:04:25.606Z,25.50
2018-03-25T13:09:28.104Z,25.33
2018-03-25T13:14:30.627Z,27.07
2018-03-25T13:19:33.184Z,24.67
2018-03-25T13:24:35.694Z,26.57
2018-03-25T13:29:39.417Z,24.63
2018-03-25T13:34:41.986Z,27.33
2018-03-25T13:39:44.480Z,25.47
2018-03-25T13:44:46.981Z,25.30
2018-03-25T13:49:49.494Z,22.77
2018-03-25T13:54:51.994Z,26.37
2018-03-25T13:59:54.475Z,24.50
2018-03-25T14:04:56.986Z,24.40
2018-03-25T14:10:00.271Z,23.90
2018-03-25T14:15:02.802Z,24.43
2018-03-25T14:20:05.319Z,24.03
2018-03-25T14:25:07.896Z,24.57
2018-03-25T14:30:10.486Z,26.13
2018-03-25T14:35:13.145Z,24.47
2018-03-25T14:40:15.659Z,25.77
2018-03-25T14:45:18.215Z,25.47
2018-03-25T14:50:20.741Z,23.30
2018-03-25T14:55:23.236Z,22.00
2018-03-25T15:00:25.715Z,25.33
2018-03-25T15:05:28.197Z,25.80
2018-03-25T15:10:30.710Z,25.47
2018-03-25T15:15:33.286Z,23.00
2018-03-25T15:20:35.763Z,23.93
2018-03-25T15:25:38.279Z,25.20
2018-03-25T15:30:40.877Z,24.73
2018-03-25T15:35:43.433Z,23.30
2018-03-25T15:40:45.950Z,23.33
2018-03-25T15:45:48.441Z,24.17
2018-03-25T15:50:50.943Z,23.53
2018-03-25T15:55:53.431Z,23.67
2018-03-25T16:00:56.500Z,25.50
2018-03-25T16:05:58.965Z,23.37
2018-03-25T16:11:01.470Z,22.37
2018-03-25T16:16:03.998Z,22.23
2018-03-25T16:21:06.567Z,23.47
2018-03-25T16:26:09.075Z,23.13
2018-03-25T16:31:11.647Z,21.33
2018-03-25T16:36:14.157Z,21.87
2018-03-25T16:41:16.720Z,22.70
2018-03-25T16:46:19.275Z,23.10
2018-03-25T16:51:21.778Z,22.70
2018-03-25T16:56:24.311Z,21.83
2018-03-25T17:01:26.824Z,22.80
2018-03-25T17:06:29.290Z,17.57
2018-03-25T17:11:31.745Z,21.33
2018-03-25T17:16:34.204Z,20.50
2018-03-25T17:21:36.724Z,17.40
2018-03-25T17:26:39.244Z,18.10
2018-03-25T17:31:41.781Z,24.67
2018-03-25T17:36:44.323Z,26.40
2018-03-25T17:41:46.785Z,23.47
2018-03-25T17:46:49.265Z,23.33
2018-03-25T17:51:52.337Z,23.40
2018-03-25T17:56:54.836Z,23.90
2018-03-25T18:01:57.364Z,23.50
2018-03-25T18:06:59.809Z,21.97
2018-03-25T18:12:02.295Z,19.60
2018-03-25T18:17:05.602Z,18.57
2018-03-25T18:22:08.195Z,21.60
2018-03-25T18:27:10.702Z,21.40
2018-03-25T18:32:13.204Z,16.80
2018-03-25T18:37:15.905Z,17.57
2018-03-25T18:42:18.377Z,22.93
2018-03-25T18:47:20.882Z,20.03
2018-03-25T18:52:23.582Z,19.00
2018-03-25T18:57:26.089Z,21.63
2018-03-25T19:02:28.621Z,20.83
2018-03-25T19:07:31.150Z,20.93
2018-03-25T19:12:33.724Z,21.57
2018-03-25T19:17:36.419Z,21.63
2018-03-25T19:22:40.002Z,20.43
2018-03-25T19:27:43.475Z,21.37
2018-03-25T19:32:46.124Z,21.43
2018-03-25T19:37:48.801Z,21.20
2018-03-25T19:42:52.756Z,22.70
2018-03-25T19:47:55.295Z,19.63
2018-03-25T19:52:57.773Z,17.67
2018-03-25T19:58:02.249Z,21.13
2018-03-25T20:03:04.721Z,22.37
2018-03-25T20:08:07.211Z,24.83
2018-03-25T20:13:09.680Z,20.87
2018-03-25T20:18:12.194Z,30.90
2018-03-25T20:23:14.668Z,33.17
2018-03-25T20:28:17.208Z,32.63
2018-03-25T20:33:19.687Z,33.50
2018-03-25T20:38:24.625Z,30.43
2018-03-25T20:43:27.213Z,33.77
2018-03-25T20:48:29.706Z,30.20
2018-03-25T20:53:34.516Z,32.07
2018-03-25T20:58:39.464Z,32.20
2018-03-25T21:03:42.082Z,30.00
2018-03-25T21:08:44.589Z,31.33
2018-03-25T21:13:47.270Z,31.33
2018-03-25T21:18:49.775Z,30.50
2018-03-25T21:23:52.262Z,30.77
2018-03-25T21:28:55.864Z,28.57
2018-03-25T21:34:00.764Z,31.40
2018-03-25T21:39:04.366Z,30.63
2018-03-25T21:44:11.128Z,30.87
2018-03-25T21:49:15.933Z,29.13
2018-03-25T21:54:20.301Z,29.57
2018-03-25T21:59:26.296Z,30.20
2018-03-25T22:04:31.570Z,29.13
2018-03-25T22:09:34.405Z,26.90
2018-03-25T22:14:36.917Z,27.60
2018-03-25T22:19:39.484Z,26.33
2018-03-25T22:24:41.987Z,28.97
2018-03-25T22:29:44.476Z,28.13
2018-03-25T22:34:47.011Z,26.50
2018-03-25T22:39:49.527Z,27.83
2018-03-25T22:44:52.001Z,24.27
2018-03-25T22:49:54.457Z,28.03
2018-03-25T22:54:56.933Z,25.53
2018-03-25T22:59:59.427Z,27.80
2018-03-25T23:05:01.908Z,28.90
2018-03-25T23:10:04.408Z,24.17
2018-03-25T23:15:06.893Z,27.63
2018-03-25T23:20:09.397Z,27.63
2018-03-25T23:25:11.885Z,27.30
2018-03-25T23:30:14.406Z,27.47
2018-03-25T23:35:17.017Z,28.10
2018-03-25T23:40:19.474Z,27.73
2018-03-25T23:45:21.926Z,25.37
2018-03-25T23:50:24.396Z,28.50
2018-03-25T23:55:26.876Z,27.90
